Alt de Santa, Puerto Rico
Current Conditions -  °F | °C
As of 4:56 AM on Thursday 25 Dec 2014 (Local Time) from TJSJ Reporting Station
Scattered Clouds Scattered Clouds  
Wind Chill: 77°   Ceiling: Unl
Heat Index: 79°   Visibility: 10mi
Dew Point: 70°   Wind: 12mph
Humidity: 79%   Direction: 50°NE
Pressure: 30.04"   Gusts: NA
Location:  18.3866°N, 66.1135°W
Report Text: TJSJ 250856Z 05010KT 10SM SCT028 25/21 A3004 RMK AO2 SLP170 60004 T02500211 55004
Loading
Personal Weather Stations






























Interactive Weather Map New forecast layout! Learn more

10-Day Weather Forecast

Advertisements
Track Severe Weather on mobile